Beverly Hills, Michigan
Current Conditions -  °F | °C
As of 5:55 PM on Tuesday 25 Nov 2014 (Local Time) from KVLL Reporting Station
Overcast Overcast  
Wind Chill: 28°   Ceiling: 2500
Heat Index: 33°   Visibility: 10mi
Dew Point: 23°   Wind: 6mph
Humidity: 67%   Direction: 260°W
Pressure: 30.13"   Gusts: NA
Location:  42.52°N, 83.23°W
Report Text: KVLL 252255Z AUTO 26005KT 10SM BKN025 OVC030 01/M05 A3013 RMK AO2 T00061048
Loading
Personal Weather Stations






























Interactive Weather Map New forecast layout! Learn more

10-Day Weather Forecast

Advertisements
Track Severe Weather on mobile